Latest Coastal Weather Observations for Rosslyn Bay Harbour

IDQ60701

Issued at 5:31 am EST Sunday 20 October 2019 (issued every 10 minutes, with the page automatically refreshed every 10 minutes)

About coastal observations | Map of coastal stations | Coastal observations for QLD | Marine services | Other Formats
Station Details ID: 033208 Name: ROSSLYN BAY NTC AWS Lat: -23.16 Lon: 150.79 Height: 0.0 m
Data from the previous 72 hours. | See also: Recent months for locations in Queensland
Date/Time
EST
Wind Sea
Height
m
Swell Vis
km
Cloud Weather Temp
°C
Press
hPa
Rain since
9am
mm
Dir  Spd
kts
Gust
kts
Height
m
Period
s
Dir
20/05:30am S 2 3 - - - - - - - 22.3 1015.2 -
20/05:00am SW 2 3 - - - - - - - 21.9 1014.9 -
20/04:30am SSW 3 5 - - - - - - - 21.7 1014.8 -
20/04:00am SSW 3 4 - - - - - - - 21.8 1014.7 -
20/03:30am SSE 4 6 - - - - - - - 22.2 1015.0 -
20/03:00am S 2 5 - - - - - - - 22.3 1014.8 -
20/02:30am NNW 5 8 - - - - - - - 23.5 1014.4 -
20/02:00am WNW 3 4 - - - - - - - 22.8 1014.9 -
20/01:30am SSW 6 9 - - - - - - - 22.6 1015.7 -
20/01:00am SSW 5 7 - - - - - - - 22.5 1016.2 -
20/12:30am SSW 7 10 - - - - - - - 22.6 1016.6 -
20/12:00am N 6 9 - - - - - - - 23.8 1015.5 -
 
Date/Time
EST
Wind Sea
Height
m
Swell Vis
km
Cloud Weather Temp
°C
Press
hPa
Rain since
9am
mm
Dir  Spd
kts
Gust
kts
Height
m
Period
s
Dir
19/11:30pm NNE 7 10 - - - - - - - 23.6 1015.2 -
19/11:00pm N 6 8 - - - - - - - 23.7 1015.4 -
19/10:30pm N 7 11 - - - - - - - 23.8 1015.2 -
19/10:00pm N 9 13 - - - - - - - 24.0 1015.2 -
19/09:30pm N 9 14 - - - - - - - 23.9 1015.1 -
19/09:00pm N 6 9 - - - - - - - 23.7 1015.3 -
19/08:30pm N 7 11 - - - - - - - 23.9 1015.0 -
19/08:00pm N 13 19 - - - - - - - 24.1 1014.7 -
19/07:30pm NNE 15 19 - - - - - - - 24.3 1014.1 -
19/07:00pm NNE 15 22 - - - - - - - 24.1 1013.5 -
19/06:30pm NNE 16 22 - - - - - - - 24.1 1013.2 -
19/06:00pm NNE 18 23 - - - - - - - 24.3 1012.9 -
19/05:30pm NNE 19 25 - - - - - - - 24.5 1012.6 -
19/05:00pm NNE 19 25 - - - - - - - 24.6 1012.7 -
19/04:30pm NNE 18 26 - - - - - - - 24.5 1012.3 -
19/04:00pm NE 18 25 - - - - - - - 24.6 1012.1 -
19/03:30pm NE 16 25 - - - - - - - 24.6 1012.4 -
19/03:00pm NE 16 23 - - - - - - - 24.9 1012.7 -
19/02:30pm NE 15 22 - - - - - - - 24.8 1013.2 -
19/02:00pm NE 15 22 - - - - - - - 24.8 1013.6 -
19/01:30pm NE 15 22 - - - - - - - 24.7 1014.1 -
19/01:00pm NE 13 20 - - - - - - - 24.8 1014.6 -
19/12:30pm NE 13 21 - - - - - - - 24.8 1015.0 -
19/12:00pm NE 13 20 - - - - - - - 24.8 1015.5 -
19/11:30am NE 12 19 - - - - - - - 24.7 1015.8 -
19/11:00am NE 12 19 - - - - - - - 24.7 1016.1 -
19/10:30am NE 12 19 - - - - - - - 24.7 1016.5 -
19/10:00am NE 11 17 - - - - - - - 24.7 1016.8 -
19/09:30am NE 10 15 - - - - - - - 24.4 1017.0 -
19/09:00am NNE 11 16 - - - - - - - 24.3 1017.1 -
19/08:30am NE 9 13 - - - - - - - 24.4 1017.2 -
19/08:00am NNE 9 11 - - - - - - - 24.1 1017.2 -
19/07:30am NNE 9 12 - - - - - - - 24.1 1016.8 -
19/07:00am NNE 8 10 - - - - - - - 23.9 1016.9 -
19/06:30am NNE 8 11 - - - - - - - 24.0 1016.7 -
19/06:00am NNE 6 9 - - - - - - - 23.9 1016.2 -
19/05:30am N 6 8 - - - - - - - 23.8 1015.9 -
19/05:00am N 5 8 - - - - - - - 23.9 1015.6 -
19/04:30am NNE 4 7 - - - - - - - 23.8 1015.2 -
19/04:00am NNE 3 5 - - - - - - - 23.7 1014.7 -
19/03:30am N 2 3 - - - - - - - 23.6 1014.4 -
19/03:00am N 2 4 - - - - - - - 23.6 1014.2 -
19/02:30am N 5 6 - - - - - - - 23.6 1014.2 -
19/02:00am N 5 8 - - - - - - - 23.8 1014.3 -
19/01:30am N 6 9 - - - - - - - 23.9 1014.6 -
19/01:00am N 8 12 - - - - - - - 24.1 1014.7 -
19/12:30am N 7 10 - - - - - - - 23.9 1014.4 -
19/12:00am N 9 14 - - - - - - - 24.1 1014.7 -
 
Date/Time
EST
Wind Sea
Height
m
Swell Vis
km
Cloud Weather Temp
°C
Press
hPa
Rain since
9am
mm
Dir  Spd
kts
Gust
kts
Height
m
Period
s
Dir
18/11:30pm N 8 11 - - - - - - - 24.1 1015.1 -
18/11:00pm N 12 17 - - - - - - - 24.2 1015.1 -
18/10:30pm NNE 14 19 - - - - - - - 24.2 1014.9 -
18/10:00pm ENE 5 11 - - - - - - - 24.2 1015.3 -
18/09:30pm SSW 4 8 - - - - - - - 24.0 1016.3 -
18/09:00pm SSW 6 10 - - - - - - - 24.1 1016.3 -
18/08:30pm WNW 5 9 - - - - - - - 25.2 1016.6 -
18/08:00pm N 9 13 - - - - - - - 24.4 1016.2 -
18/07:30pm NNE 14 19 - - - - - - - 24.2 1014.7 -
18/07:00pm NNE 16 23 - - - - - - - 24.3 1013.6 -
18/06:30pm NNE 17 25 - - - - - - - 24.3 1012.3 -
18/06:00pm NNE 18 26 - - - - - - - 24.4 1012.0 -
18/05:37pm NNE 17 27 - - - - - - - 24.5 1011.9 -
18/05:30pm NNE 17 25 - - - - - - - 24.6 1011.9 -
18/05:10pm NE 16 27 - - - - - - - 24.6 1011.6 -
18/05:00pm NE 16 25 - - - - - - - 24.7 1011.5 -
18/04:30pm NE 14 21 - - - - - - - 24.7 1011.6 -
18/04:00pm NNE 14 20 - - - - - - - 24.8 1011.6 -
18/03:30pm NE 11 19 - - - - - - - 24.9 1011.7 -
18/03:00pm NNE 12 17 - - - - - - - 24.9 1011.8 -
18/02:30pm NE 10 17 - - - - - - - 25.0 1012.2 -
18/02:00pm NE 10 16 - - - - - - - 25.0 1012.7 -
18/01:30pm NE 10 17 - - - - - - - 25.0 1013.2 -
18/01:00pm NE 10 16 - - - - - - - 24.9 1013.7 -
18/12:30pm NE 12 19 - - - - - - - 24.8 1014.4 -
18/12:00pm NE 14 19 - - - - - - - 24.7 1014.8 -
18/11:30am ENE 11 15 - - - - - - - 25.0 1015.3 -
18/11:00am NE 10 13 - - - - - - - 25.0 1016.1 -
18/10:30am NE 8 11 - - - - - - - 25.1 1016.4 -
18/10:00am NE 7 10 - - - - - - - 25.5 1016.6 -
18/09:30am NE 5 7 - - - - - - - 25.6 1016.6 -
18/09:00am NE 5 6 - - - - - - - 24.3 1016.9 -
18/08:30am NE 5 7 - - - - - - - 23.8 1016.9 -
18/08:00am NNE 2 3 - - - - - - - 23.9 1016.8 -
18/07:30am NNE 2 3 - - - - - - - 23.5 1016.6 -
18/07:00am W 1 3 - - - - - - - 22.9 1016.3 -
18/06:30am WNW 1 2 - - - - - - - 22.7 1016.2 -
18/06:00am NW 1 2 - - - - - - - 22.8 1015.8 -
18/05:30am NNW 3 6 - - - - - - - 22.9 1015.4 -
18/05:00am N 5 8 - - - - - - - 22.8 1014.9 -
18/04:30am NW 6 8 - - - - - - - 22.8 1014.7 -
18/04:00am N 8 12 - - - - - - - 23.0 1014.1 -
18/03:30am NNE 12 17 - - - - - - - 23.3 1013.4 -
18/03:00am N 7 9 - - - - - - - 22.8 1014.3 -
18/02:30am N 5 7 - - - - - - - 22.5 1014.5 -
18/02:00am N 6 9 - - - - - - - 22.5 1014.6 -
18/01:30am N 8 12 - - - - - - - 22.8 1014.5 -
18/01:00am NNW 7 10 - - - - - - - 22.5 1015.3 -
18/12:30am N 9 14 - - - - - - - 22.9 1015.3 -
18/12:00am N 11 14 - - - - - - - 23.7 1015.6 -
 
Date/Time
EST
Wind Sea
Height
m
Swell Vis
km
Cloud Weather Temp
°C
Press
hPa
Rain since
9am
mm
Dir  Spd
kts
Gust
kts
Height
m
Period
s
Dir
17/11:30pm N 7 11 - - - - - - - 23.8 1016.5 -
17/11:00pm NNE 5 8 - - - - - - - 23.7 1016.9 -
17/10:30pm NNE 5 8 - - - - - - - 23.7 1016.8 -
17/10:00pm N 2 4 - - - - - - - 23.6 1017.2 -
17/09:30pm N 5 9 - - - - - - - 23.8 1017.0 -
17/09:00pm NNE 12 15 - - - - - - - 23.8 1016.2 -
17/08:30pm NNE 12 15 - - - - - - - 24.0 1015.9 -
17/08:00pm NNE 12 16 - - - - - - - 24.0 1015.8 -
17/07:30pm NNE 13 17 - - - - - - - 24.1 1015.3 -
17/07:00pm NNE 14 20 - - - - - - - 24.1 1014.8 -
17/06:30pm NNE 15 21 - - - - - - - 24.2 1014.0 -
17/06:00pm NNE 17 22 - - - - - - - 24.1 1013.9 -
17/05:30pm NNE 19 25 - - - - - - - 24.2 1013.3 -
17/05:00pm NNE 20 27 - - - - - - - 24.3 1012.8 -
17/04:30pm NNE 20 27 - - - - - - - 24.3 1012.7 -
17/04:00pm NNE 19 26 - - - - - - - 24.2 1012.8 -
17/03:30pm NNE 21 28 - - - - - - - 24.4 1012.6 -
17/03:00pm NNE 20 27 - - - - - - - 24.2 1012.7 -
17/02:30pm NNE 21 29 - - - - - - - 24.2 1013.1 -
17/02:00pm NNE 19 26 - - - - - - - 24.3 1013.6 -
17/01:30pm NE 18 26 - - - - - - - 24.2 1013.9 -
17/01:00pm NE 17 25 - - - - - - - 24.2 1014.4 -
17/12:30pm NE 16 23 - - - - - - - 24.3 1014.9 -
17/12:00pm NE 17 25 - - - - - - - 24.3 1015.2 -
17/11:30am NE 16 23 - - - - - - - 24.2 1015.7 -
17/11:00am NNE 17 24 - - - - - - - 24.1 1015.8 -
17/10:30am NE 15 21 - - - - - - - 24.1 1016.0 -
17/10:00am NNE 15 21 - - - - - - - 24.1 1016.2 -
17/09:30am NE 13 20 - - - - - - - 23.9 1016.5 -
17/09:00am NE 14 18 - - - - - - - 23.6 1017.3 -
17/08:30am NE 11 16 - - - - - - - 24.1 1017.3 -
17/08:00am N 4 7 - - - - - - - 24.3 1017.6 -
17/07:30am NNW 5 7 - - - - - - - 23.9 1017.7 -
17/07:00am NW 5 8 - - - - - - - 23.1 1017.7 -
17/06:30am N 6 8 - - - - - - - 23.4 1017.3 -
17/06:00am N 5 9 - - - - - - - 23.4 1017.1 -

Other formats

Comma delimited format used in spreadsheet applications
http://www.bom.gov.au/fwo/IDQ60701/IDQ60701.95298.axf

JavaScript Object Notation format (JSON) in row-major order
http://www.bom.gov.au/fwo/IDQ60701/IDQ60701.95298.json

Data quality

Most of these data are generated automatically and are frequently updated. Quality checks on data are not normally performed. It is possible for incorrect values to appear. Refer to information at About Latest Weather Observations and please check the disclaimer before using these data.